createdAt,value
2023-05-03T00:01:09.937Z,6.90
2023-05-03T00:03:40.854Z,6.93
2023-05-03T00:06:16.762Z,8.47
2023-05-03T00:08:44.891Z,6.63
2023-05-03T00:11:14.395Z,6.47
2023-05-03T00:13:44.884Z,7.07
2023-05-03T00:16:14.007Z,8.37
2023-05-03T00:18:49.305Z,7.40
2023-05-03T00:21:17.732Z,8.30
2023-05-03T00:23:54.892Z,7.33
2023-05-03T00:26:24.312Z,7.07
2023-05-03T00:29:02.543Z,5.87
2023-05-03T00:31:32.743Z,11.47
2023-05-03T00:34:01.119Z,7.03
2023-05-03T00:36:29.166Z,8.33
2023-05-03T00:38:57.163Z,8.23
2023-05-03T00:41:26.724Z,10.33
2023-05-03T00:43:54.688Z,6.27
2023-05-03T00:46:22.797Z,6.83
2023-05-03T00:48:51.829Z,7.10
2023-05-03T00:51:32.032Z,8.27
2023-05-03T00:54:00.074Z,6.40
2023-05-03T00:56:32.951Z,7.77
2023-05-03T00:59:18.636Z,7.23
2023-05-03T01:01:50.816Z,7.23
2023-05-03T01:04:19.730Z,8.67
2023-05-03T01:06:55.580Z,7.17
2023-05-03T01:09:33.204Z,7.97
2023-05-03T01:12:16.141Z,9.03
2023-05-03T01:14:54.266Z,7.83
2023-05-03T01:17:31.182Z,6.83
2023-05-03T01:20:06.059Z,6.63
2023-05-03T01:22:43.619Z,7.43
2023-05-03T01:25:14.386Z,7.57
2023-05-03T01:27:55.070Z,6.63
2023-05-03T01:30:34.147Z,7.53
2023-05-03T01:33:11.691Z,10.37
2023-05-03T01:35:45.594Z,7.40
2023-05-03T01:38:28.352Z,7.07
2023-05-03T01:41:02.222Z,7.13
2023-05-03T01:43:35.221Z,7.27
2023-05-03T01:46:12.313Z,7.53
2023-05-03T01:48:40.378Z,8.03
2023-05-03T01:51:08.400Z,8.77
2023-05-03T01:53:37.617Z,7.57
2023-05-03T01:56:08.465Z,6.47
2023-05-03T01:58:45.780Z,7.13
2023-05-03T02:01:20.750Z,7.27
2023-05-03T02:03:51.192Z,12.73
2023-05-03T02:06:19.298Z,8.57
2023-05-03T02:08:47.329Z,11.90
2023-05-03T02:11:16.723Z,7.67
2023-05-03T02:13:44.714Z,7.37
2023-05-03T02:16:12.699Z,8.33
2023-05-03T02:18:41.872Z,7.70
2023-05-03T02:21:10.446Z,8.40
2023-05-03T02:23:38.426Z,7.10
2023-05-03T02:26:06.662Z,7.93
2023-05-03T02:28:56.485Z,9.63
2023-05-03T02:31:24.588Z,8.77
2023-05-03T02:33:52.847Z,10.33
2023-05-03T02:36:21.896Z,10.13
2023-05-03T02:38:50.013Z,10.30
2023-05-03T02:41:18.005Z,9.63
2023-05-03T02:43:46.090Z,10.30
2023-05-03T02:46:15.708Z,9.93
2023-05-03T02:48:45.057Z,9.53
2023-05-03T02:51:13.040Z,12.97
2023-05-03T02:53:41.050Z,13.80
2023-05-03T02:56:09.822Z,10.07
2023-05-03T02:58:38.061Z,10.10
2023-05-03T03:01:06.428Z,10.63
2023-05-03T03:03:36.306Z,12.10
2023-05-03T03:06:04.503Z,11.10
2023-05-03T03:08:32.659Z,9.60
2023-05-03T03:11:03.822Z,11.37
2023-05-03T03:13:32.886Z,10.10
2023-05-03T03:16:01.219Z,11.20
2023-05-03T03:18:29.238Z,9.43
2023-05-03T03:21:05.381Z,10.33
2023-05-03T03:23:40.690Z,10.03
2023-05-03T03:26:08.690Z,11.73
2023-05-03T03:28:50.077Z,10.33
2023-05-03T03:31:23.639Z,8.97
2023-05-03T03:33:51.663Z,10.87
2023-05-03T03:36:38.069Z,10.20
2023-05-03T03:39:07.359Z,13.10
2023-05-03T03:41:35.670Z,11.27
2023-05-03T03:44:10.961Z,12.00
2023-05-03T03:46:53.718Z,10.80
2023-05-03T03:49:21.751Z,10.07
2023-05-03T03:51:51.241Z,12.07
2023-05-03T03:54:19.316Z,12.60
2023-05-03T03:56:47.424Z,12.17
2023-05-03T03:59:15.588Z,9.87
2023-05-03T04:01:43.616Z,11.13
2023-05-03T04:04:18.067Z,12.27
2023-05-03T04:06:47.785Z,11.57
2023-05-03T04:09:18.103Z,14.07
2023-05-03T04:12:02.665Z,14.63
2023-05-03T04:14:30.829Z,13.77
2023-05-03T04:16:59.096Z,13.03
2023-05-03T04:19:27.441Z,15.37
2023-05-03T04:22:08.978Z,13.30
2023-05-03T04:24:39.720Z,14.63
2023-05-03T04:27:08.631Z,14.10
2023-05-03T04:29:39.035Z,16.40
2023-05-03T04:32:07.801Z,15.00
2023-05-03T04:34:42.370Z,12.53
2023-05-03T04:37:10.814Z,13.40
2023-05-03T04:39:40.247Z,13.53
2023-05-03T04:42:08.927Z,16.27
2023-05-03T04:44:36.920Z,15.43
2023-05-03T04:47:19.119Z,15.63
2023-05-03T04:49:49.219Z,16.27
2023-05-03T04:52:20.514Z,14.63
2023-05-03T04:54:51.688Z,15.63
2023-05-03T04:57:22.839Z,16.23
2023-05-03T04:59:51.081Z,15.70
2023-05-03T05:02:21.619Z,15.10
2023-05-03T05:04:49.889Z,13.10
2023-05-03T05:07:17.993Z,13.57
2023-05-03T05:09:47.249Z,12.90
2023-05-03T05:12:16.771Z,13.30
2023-05-03T05:14:44.973Z,12.37
2023-05-03T05:17:21.495Z,12.90
2023-05-03T05:19:52.467Z,14.03
2023-05-03T05:22:21.015Z,13.03
2023-05-03T05:24:51.112Z,13.93
2023-05-03T05:27:32.787Z,13.47
2023-05-03T05:30:02.377Z,10.57
2023-05-03T05:32:33.497Z,12.27
2023-05-03T05:35:25.385Z,13.27
2023-05-03T05:38:00.134Z,13.07
2023-05-03T05:40:29.163Z,14.90
2023-05-03T05:43:04.691Z,10.83
2023-05-03T05:45:34.451Z,12.33
2023-05-03T05:48:09.279Z,12.97
2023-05-03T05:50:49.639Z,12.47
2023-05-03T05:53:17.772Z,12.87
2023-05-03T05:55:54.408Z,12.33
2023-05-03T05:58:32.844Z,13.40
2023-05-03T06:01:24.787Z,14.53
2023-05-03T06:03:59.350Z,11.90
2023-05-03T06:06:38.525Z,15.03
2023-05-03T06:09:23.597Z,13.47
2023-05-03T06:11:59.547Z,13.47
2023-05-03T06:14:40.623Z,14.20
2023-05-03T06:17:12.158Z,12.67
2023-05-03T06:19:40.341Z,12.67
2023-05-03T06:22:08.369Z,12.30
2023-05-03T06:24:36.301Z,13.07
2023-05-03T06:27:04.462Z,13.70
2023-05-03T06:29:44.341Z,12.93
2023-05-03T06:32:12.461Z,11.38
2023-05-03T06:34:40.470Z,12.63
2023-05-03T06:37:08.489Z,13.85
2023-05-03T06:39:36.507Z,12.38
2023-05-03T06:42:04.519Z,14.02
2023-05-03T06:44:33.709Z,12.52
2023-05-03T06:47:03.186Z,13.05
2023-05-03T06:49:31.261Z,12.25
2023-05-03T06:51:59.233Z,12.57
2023-05-03T06:54:27.561Z,12.70
2023-05-03T06:56:55.545Z,12.98
2023-05-03T06:59:23.502Z,12.55
2023-05-03T07:01:51.778Z,10.45
2023-05-03T07:04:21.538Z,12.25
2023-05-03T07:09:35.423Z,10.90
2023-05-03T07:12:10.516Z,11.18
2023-05-03T07:14:39.337Z,10.80
2023-05-03T07:17:07.528Z,11.43
2023-05-03T07:19:37.918Z,11.32
2023-05-03T07:22:06.002Z,12.20
2023-05-03T07:24:34.042Z,11.77
2023-05-03T07:27:02.162Z,10.68
2023-05-03T07:29:30.505Z,11.65
2023-05-03T07:31:59.073Z,10.90
2023-05-03T07:34:27.313Z,11.57
2023-05-03T07:36:56.832Z,10.57
2023-05-03T07:39:24.918Z,11.38
2023-05-03T07:41:53.260Z,11.13
2023-05-03T07:44:21.350Z,9.27
2023-05-03T07:46:49.404Z,9.55
2023-05-03T07:49:17.412Z,11.05
2023-05-03T07:51:45.411Z,9.82
2023-05-03T07:54:14.801Z,9.10
2023-05-03T07:56:42.804Z,9.90
2023-05-03T07:59:10.874Z,9.68
2023-05-03T08:01:39.147Z,8.88
2023-05-03T08:04:07.974Z,9.63
2023-05-03T08:06:38.508Z,9.82
2023-05-03T08:09:06.711Z,9.93
2023-05-03T08:11:36.752Z,11.77
2023-05-03T08:14:04.732Z,8.82
2023-05-03T08:16:33.007Z,9.70
2023-05-03T08:19:01.113Z,8.55
2023-05-03T08:21:30.314Z,8.70
2023-05-03T08:23:58.406Z,8.45
2023-05-03T08:26:28.590Z,8.20
2023-05-03T08:28:58.033Z,8.27
2023-05-03T08:31:27.010Z,7.35
2023-05-03T08:33:55.060Z,7.10
2023-05-03T08:36:23.108Z,8.35
2023-05-03T08:38:51.492Z,7.53
2023-05-03T08:41:24.288Z,9.40
2023-05-03T08:43:55.074Z,9.50
2023-05-03T08:46:25.709Z,9.20
2023-05-03T08:48:55.022Z,8.90
2023-05-03T08:51:24.425Z,7.35
2023-05-03T08:53:53.660Z,7.07
2023-05-03T08:56:30.211Z,7.93
2023-05-03T08:59:04.864Z,7.38
2023-05-03T09:01:34.621Z,6.72
2023-05-03T09:04:05.294Z,7.75
2023-05-03T09:06:36.821Z,6.82
2023-05-03T09:09:07.496Z,6.60
2023-05-03T09:11:36.737Z,6.43
2023-05-03T09:14:12.160Z,6.78
2023-05-03T09:16:43.215Z,6.63
2023-05-03T09:19:12.709Z,6.93
2023-05-03T09:21:41.311Z,7.15
2023-05-03T09:24:16.647Z,6.28
2023-05-03T09:26:45.669Z,6.53
2023-05-03T09:29:29.183Z,6.57
2023-05-03T09:32:16.120Z,8.80
2023-05-03T09:34:55.468Z,6.05
2023-05-03T09:37:41.461Z,7.68
2023-05-03T09:40:20.514Z,6.10
2023-05-03T09:45:51.981Z,6.50
2023-05-03T09:48:25.728Z,6.30
2023-05-03T09:50:59.312Z,5.97
2023-05-03T09:53:44.245Z,6.50
2023-05-03T09:56:21.225Z,6.63
2023-05-03T09:58:57.234Z,6.22
2023-05-03T10:01:36.878Z,6.45
2023-05-03T10:04:25.796Z,8.73
2023-05-03T10:07:20.593Z,11.02
2023-05-03T10:10:14.583Z,6.85
2023-05-03T10:13:01.867Z,6.30
2023-05-03T10:15:43.974Z,6.03
2023-05-03T10:18:31.901Z,7.10
2023-05-03T10:21:16.591Z,5.70
2023-05-03T10:27:20.014Z,5.85
2023-05-03T10:29:54.894Z,7.22
2023-05-03T10:32:43.446Z,6.13
2023-05-03T10:35:17.801Z,8.02
2023-05-03T10:37:54.380Z,5.95
2023-05-03T10:40:33.872Z,6.05
2023-05-03T10:43:13.463Z,6.18
2023-05-03T10:45:54.841Z,6.95
2023-05-03T10:48:30.462Z,6.07
2023-05-03T10:51:39.841Z,7.53
2023-05-03T10:54:14.619Z,5.93
2023-05-03T10:57:03.073Z,6.97
2023-05-03T10:59:54.124Z,7.20
2023-05-03T11:02:38.210Z,6.72
2023-05-03T11:05:20.273Z,7.10
2023-05-03T11:07:57.656Z,6.47
2023-05-03T11:10:34.359Z,6.43
2023-05-03T11:13:16.709Z,6.15
2023-05-03T11:15:57.716Z,5.43
2023-05-03T11:18:35.994Z,6.88
2023-05-03T11:21:13.076Z,6.32
2023-05-03T11:23:51.631Z,7.93
2023-05-03T11:26:28.912Z,6.60
2023-05-03T11:29:08.524Z,6.32
2023-05-03T11:31:55.249Z,6.50
2023-05-03T11:34:35.577Z,6.43
2023-05-03T11:37:18.149Z,6.30
2023-05-03T11:39:57.174Z,6.45
2023-05-03T11:42:32.457Z,6.68
2023-05-03T11:45:19.424Z,5.85
2023-05-03T11:47:55.897Z,7.82
2023-05-03T11:51:09.246Z,6.43
2023-05-03T11:53:48.732Z,5.95
2023-05-03T11:56:25.907Z,8.02
2023-05-03T11:59:05.501Z,5.35
2023-05-03T12:01:49.605Z,6.70
2023-05-03T12:04:37.923Z,7.00
2023-05-03T12:07:19.603Z,5.85
2023-05-03T12:10:13.837Z,5.90
2023-05-03T12:13:05.238Z,5.07
2023-05-03T12:18:34.560Z,7.15
2023-05-03T12:24:24.705Z,6.82
2023-05-03T12:27:03.198Z,6.70
2023-05-03T12:29:42.599Z,5.85
2023-05-03T12:32:29.949Z,5.50
2023-05-03T12:35:14.513Z,5.93
2023-05-03T12:38:02.488Z,5.53
2023-05-03T12:40:40.853Z,7.95
2023-05-03T12:43:22.058Z,5.43
2023-05-03T12:46:11.915Z,6.20
2023-05-03T12:48:54.287Z,6.80
2023-05-03T12:51:26.252Z,7.28
2023-05-03T12:54:19.391Z,5.97
2023-05-03T12:56:55.915Z,6.53
2023-05-03T13:00:02.145Z,5.20
2023-05-03T13:08:11.287Z,6.05
2023-05-03T13:10:49.342Z,7.55
2023-05-03T13:13:32.925Z,5.82
2023-05-03T13:16:11.460Z,6.10
2023-05-03T13:18:49.493Z,6.13
2023-05-03T13:21:22.711Z,6.20
2023-05-03T13:23:56.871Z,5.78
2023-05-03T13:26:32.961Z,6.03
2023-05-03T13:29:13.273Z,6.65
2023-05-03T13:31:47.607Z,5.60
2023-05-03T13:34:21.760Z,6.20
2023-05-03T13:37:05.952Z,6.22
2023-05-03T13:39:36.488Z,5.65
2023-05-03T13:42:16.422Z,5.30
2023-05-03T13:44:54.019Z,5.05
2023-05-03T13:47:47.376Z,6.10
2023-05-03T13:50:32.669Z,4.90
2023-05-03T13:53:03.186Z,5.28
2023-05-03T13:55:34.677Z,5.43
2023-05-03T13:58:11.511Z,7.00
2023-05-03T14:00:44.312Z,5.22
2023-05-03T14:03:26.386Z,5.63
2023-05-03T14:06:11.793Z,6.25
2023-05-03T14:09:07.805Z,6.03
2023-05-03T14:11:46.108Z,5.15
2023-05-03T14:14:24.895Z,5.50
2023-05-03T14:17:17.253Z,5.57
2023-05-03T14:20:28.670Z,6.10
2023-05-03T14:23:11.623Z,5.45
2023-05-03T14:25:50.840Z,6.15
2023-05-03T14:28:33.254Z,7.28
2023-05-03T14:31:17.506Z,5.03
2023-05-03T14:33:55.419Z,4.57
2023-05-03T14:36:40.860Z,4.72
2023-05-03T14:39:20.619Z,5.68
2023-05-03T14:41:56.584Z,4.60
2023-05-03T14:44:42.972Z,5.93
2023-05-03T14:47:32.918Z,5.88
2023-05-03T14:50:04.750Z,5.18
2023-05-03T14:52:47.021Z,5.05
2023-05-03T14:55:18.638Z,4.38
2023-05-03T14:57:55.757Z,6.13
2023-05-03T15:00:37.277Z,4.80
2023-05-03T15:03:14.201Z,5.82
2023-05-03T15:05:58.983Z,4.57
2023-05-03T15:08:34.540Z,6.13
2023-05-03T15:11:09.539Z,4.63
2023-05-03T15:13:47.091Z,5.80
2023-05-03T15:16:23.772Z,4.35
2023-05-03T15:19:00.385Z,3.67
2023-05-03T15:21:29.712Z,4.20
2023-05-03T15:24:16.468Z,4.40
2023-05-03T15:26:57.289Z,6.22
2023-05-03T15:29:47.596Z,6.32
2023-05-03T15:32:23.749Z,3.25
2023-05-03T15:35:03.378Z,4.03
2023-05-03T15:37:47.839Z,3.60
2023-05-03T15:40:32.603Z,4.22
2023-05-03T15:43:11.728Z,3.50
2023-05-03T15:46:00.303Z,3.25
2023-05-03T15:49:13.067Z,3.95
2023-05-03T15:52:02.607Z,5.00
2023-05-03T15:54:57.623Z,5.07
2023-05-03T15:57:33.172Z,3.67
2023-05-03T16:00:14.927Z,4.70
2023-05-03T16:02:52.702Z,4.95
2023-05-03T16:05:31.393Z,3.42
2023-05-03T16:08:06.295Z,3.95
2023-05-03T16:10:58.320Z,3.83
2023-05-03T16:14:14.206Z,3.60
2023-05-03T16:16:53.232Z,3.75
2023-05-03T16:19:34.517Z,4.03
2023-05-03T16:22:25.741Z,3.92
2023-05-03T16:24:59.952Z,3.25
2023-05-03T16:27:42.655Z,4.78
2023-05-03T16:30:13.589Z,3.65
2023-05-03T16:33:00.636Z,4.00
2023-05-03T16:35:49.379Z,4.25
2023-05-03T16:38:21.953Z,3.60
2023-05-03T16:40:52.562Z,4.45
2023-05-03T16:43:30.276Z,3.65
2023-05-03T16:46:07.609Z,3.25
2023-05-03T16:48:47.725Z,5.07
2023-05-03T16:51:29.800Z,4.25
2023-05-03T16:54:03.877Z,4.93
2023-05-03T16:56:40.300Z,3.70
2023-05-03T16:59:15.017Z,5.18
2023-05-03T17:01:49.123Z,3.70
2023-05-03T17:04:30.318Z,4.40
2023-05-03T17:07:11.500Z,4.93
2023-05-03T17:09:54.423Z,4.32
2023-05-03T17:12:29.450Z,6.25
2023-05-03T17:14:58.550Z,3.53
2023-05-03T17:17:28.284Z,4.03
2023-05-03T17:20:13.030Z,4.22
2023-05-03T17:23:10.890Z,4.45
2023-05-03T17:25:43.016Z,4.18
2023-05-03T17:28:22.278Z,3.60
2023-05-03T17:31:01.728Z,4.25
2023-05-03T17:33:36.668Z,4.32
2023-05-03T17:36:14.672Z,3.95
2023-05-03T17:38:59.323Z,4.35
2023-05-03T17:41:34.878Z,3.55
2023-05-03T17:44:22.598Z,4.07
2023-05-03T17:47:03.169Z,5.22
2023-05-03T17:49:56.082Z,4.97
2023-05-03T17:52:26.518Z,4.00
2023-05-03T17:55:15.226Z,6.72
2023-05-03T17:57:49.740Z,4.68
2023-05-03T18:00:29.567Z,4.72
2023-05-03T18:03:03.661Z,4.63
2023-05-03T18:05:47.097Z,3.70
2023-05-03T18:08:40.069Z,4.07
2023-05-03T18:11:16.332Z,4.60
2023-05-03T18:13:55.377Z,5.25
2023-05-03T18:16:32.696Z,4.18
2023-05-03T18:19:34.931Z,3.65
2023-05-03T18:22:28.476Z,5.47
2023-05-03T18:25:15.929Z,3.53
2023-05-03T18:27:57.574Z,4.82
2023-05-03T18:30:42.383Z,5.00
2023-05-03T18:33:34.421Z,4.45
2023-05-03T18:36:11.996Z,4.57
2023-05-03T18:38:59.144Z,5.22
2023-05-03T18:41:37.539Z,5.25
2023-05-03T18:44:24.681Z,4.07
2023-05-03T18:47:08.083Z,4.82
2023-05-03T18:49:53.361Z,4.50
2023-05-03T18:55:20.618Z,7.07
2023-05-03T18:57:56.789Z,7.20
2023-05-03T19:00:38.072Z,4.32
2023-05-03T19:03:11.717Z,4.57
2023-05-03T19:05:40.042Z,4.50
2023-05-03T19:08:08.660Z,4.63
2023-05-03T19:10:36.855Z,5.25
2023-05-03T19:13:04.979Z,5.85
2023-05-03T19:15:34.709Z,5.03
2023-05-03T19:18:05.094Z,5.40
2023-05-03T19:20:35.236Z,4.72
2023-05-03T19:23:04.612Z,4.93
2023-05-03T19:25:32.682Z,6.68
2023-05-03T19:28:01.178Z,7.72
2023-05-03T19:30:29.295Z,5.03
2023-05-03T19:33:07.764Z,5.68
2023-05-03T19:35:39.442Z,4.93
2023-05-03T19:38:10.423Z,5.65
2023-05-03T19:40:39.018Z,5.20
2023-05-03T19:43:07.525Z,4.78
2023-05-03T19:45:35.527Z,4.60
2023-05-03T19:48:04.838Z,4.43
2023-05-03T19:50:36.698Z,5.15
2023-05-03T19:53:04.978Z,6.00
2023-05-03T19:55:40.299Z,5.35
2023-05-03T19:58:08.441Z,6.00
2023-05-03T20:00:41.607Z,4.80
2023-05-03T20:03:09.754Z,4.60
2023-05-03T20:05:39.179Z,5.63
2023-05-03T20:08:07.174Z,4.47
2023-05-03T20:10:36.431Z,5.63
2023-05-03T20:13:04.919Z,6.22
2023-05-03T20:15:40.349Z,5.10
2023-05-03T20:18:09.099Z,4.43
2023-05-03T20:20:39.086Z,6.43
2023-05-03T20:23:09.159Z,4.85
2023-05-03T20:25:44.344Z,4.43
2023-05-03T20:28:14.986Z,5.30
2023-05-03T20:30:43.606Z,5.47
2023-05-03T20:33:12.705Z,5.60
2023-05-03T20:35:51.199Z,7.53
2023-05-03T20:38:19.355Z,5.25
2023-05-03T20:40:49.968Z,6.30
2023-05-03T20:43:24.241Z,8.23
2023-05-03T20:45:53.460Z,5.28
2023-05-03T20:48:21.694Z,7.28
2023-05-03T20:51:00.872Z,5.30
2023-05-03T20:53:29.518Z,5.22
2023-05-03T20:56:05.413Z,5.93
2023-05-03T20:58:33.571Z,4.95
2023-05-03T21:01:17.581Z,6.75
2023-05-03T21:03:45.792Z,4.80
2023-05-03T21:06:16.371Z,4.63
2023-05-03T21:08:48.617Z,6.18
2023-05-03T21:11:18.841Z,5.57
2023-05-03T21:13:46.903Z,5.93
2023-05-03T21:16:14.984Z,6.40
2023-05-03T21:18:43.154Z,6.68
2023-05-03T21:21:11.242Z,5.75
2023-05-03T21:23:42.890Z,8.23
2023-05-03T21:26:11.124Z,5.30
2023-05-03T21:28:39.214Z,5.20
2023-05-03T21:31:14.349Z,6.35
2023-05-03T21:33:43.415Z,5.00
2023-05-03T21:36:14.730Z,5.65
2023-05-03T21:38:45.157Z,5.70
2023-05-03T21:41:23.561Z,6.40
2023-05-03T21:43:51.600Z,5.63
2023-05-03T21:46:19.764Z,6.83
2023-05-03T21:48:47.864Z,7.10
2023-05-03T21:51:24.996Z,6.87
2023-05-03T21:54:02.394Z,8.43
2023-05-03T21:56:31.622Z,7.53
2023-05-03T21:58:59.686Z,5.80
2023-05-03T22:01:28.465Z,5.53
2023-05-03T22:03:56.824Z,7.67
2023-05-03T22:06:48.805Z,5.53
2023-05-03T22:09:18.398Z,6.77
2023-05-03T22:11:46.407Z,6.70
2023-05-03T22:14:15.304Z,6.20
2023-05-03T22:16:45.409Z,7.83
2023-05-03T22:19:14.292Z,5.60
2023-05-03T22:21:49.371Z,5.47
2023-05-03T22:24:18.791Z,5.83
2023-05-03T22:26:49.090Z,8.37
2023-05-03T22:29:17.721Z,6.47
2023-05-03T22:31:46.097Z,7.43
2023-05-03T22:34:14.125Z,6.40
2023-05-03T22:36:42.187Z,6.83
2023-05-03T22:39:10.920Z,6.43
2023-05-03T22:41:40.396Z,6.87
2023-05-03T22:44:09.533Z,6.80
2023-05-03T22:46:37.505Z,6.70
2023-05-03T22:49:29.530Z,6.50
2023-05-03T22:51:57.484Z,6.13
2023-05-03T22:54:27.120Z,6.70
2023-05-03T22:56:58.493Z,6.70
2023-05-03T22:59:29.735Z,6.27
2023-05-03T23:01:57.781Z,7.25
2023-05-03T23:04:26.487Z,7.63
2023-05-03T23:06:54.827Z,8.43
2023-05-03T23:09:22.877Z,8.60
2023-05-03T23:11:52.291Z,7.22
2023-05-03T23:14:30.818Z,8.23
2023-05-03T23:17:07.084Z,8.07
2023-05-03T23:19:38.745Z,7.83
2023-05-03T23:22:10.128Z,6.53
2023-05-03T23:24:39.538Z,6.83
2023-05-03T23:27:07.857Z,6.83
2023-05-03T23:29:37.565Z,8.07
2023-05-03T23:32:13.357Z,6.90
2023-05-03T23:34:43.871Z,5.80
2023-05-03T23:37:11.969Z,7.43
2023-05-03T23:39:44.389Z,8.10
2023-05-03T23:42:12.970Z,7.73
2023-05-03T23:44:54.517Z,8.40
2023-05-03T23:47:23.691Z,7.90
2023-05-03T23:49:53.814Z,9.30
2023-05-03T23:52:21.827Z,9.73
2023-05-03T23:54:49.931Z,7.93
2023-05-03T23:57:18.005Z,6.87
2023-05-03T23:59:47.363Z,7.27
